sensor_id;sensor_type;location;lat;lon;timestamp;P1;durP1;ratioP1;P2;durP2;ratioP2
27796;SDS011;15177;50.844;4.412;2022-09-09T00:04:13;5.60;;;1.65;;
27796;SDS011;15177;50.844;4.412;2022-09-09T00:09:26;3.05;;;1.30;;
27796;SDS011;15177;50.844;4.412;2022-09-09T00:12:00;7.45;;;1.77;;
27796;SDS011;15177;50.844;4.412;2022-09-09T00:17:06;5.63;;;1.30;;
27796;SDS011;15177;50.844;4.412;2022-09-09T00:24:52;3.47;;;1.20;;
27796;SDS011;15177;50.844;4.412;2022-09-09T00:32:36;5.15;;;1.30;;
27796;SDS011;15177;50.844;4.412;2022-09-09T00:37:40;3.75;;;1.15;;
27796;SDS011;15177;50.844;4.412;2022-09-09T00:40:18;2.78;;;1.08;;
27796;SDS011;15177;50.844;4.412;2022-09-09T00:43:02;7.60;;;1.38;;
27796;SDS011;15177;50.844;4.412;2022-09-09T00:48:19;5.72;;;1.60;;
27796;SDS011;15177;50.844;4.412;2022-09-09T00:50:55;6.68;;;2.03;;
27796;SDS011;15177;50.844;4.412;2022-09-09T01:01:30;3.33;;;1.30;;
27796;SDS011;15177;50.844;4.412;2022-09-09T01:03:56;3.92;;;1.25;;
27796;SDS011;15177;50.844;4.412;2022-09-09T01:06:32;9.32;;;2.05;;
27796;SDS011;15177;50.844;4.412;2022-09-09T01:11:49;4.72;;;1.67;;
27796;SDS011;15177;50.844;4.412;2022-09-09T01:17:09;5.03;;;1.40;;
27796;SDS011;15177;50.844;4.412;2022-09-09T01:19:51;4.32;;;1.30;;
27796;SDS011;15177;50.844;4.412;2022-09-09T01:28:06;7.20;;;2.05;;
27796;SDS011;15177;50.844;4.412;2022-09-09T01:30:37;8.65;;;1.70;;
27796;SDS011;15177;50.844;4.412;2022-09-09T01:33:04;3.70;;;1.23;;
27796;SDS011;15177;50.844;4.412;2022-09-09T01:38:19;6.20;;;1.85;;
27796;SDS011;15177;50.844;4.412;2022-09-09T01:40:45;13.07;;;1.90;;
27796;SDS011;15177;50.844;4.412;2022-09-09T01:43:11;11.85;;;1.80;;
27796;SDS011;15177;50.844;4.412;2022-09-09T01:45:38;11.57;;;2.92;;
27796;SDS011;15177;50.844;4.412;2022-09-09T01:48:05;6.07;;;1.35;;
27796;SDS011;15177;50.844;4.412;2022-09-09T01:50:31;4.18;;;1.58;;
27796;SDS011;15177;50.844;4.412;2022-09-09T01:52:58;8.00;;;1.90;;
27796;SDS011;15177;50.844;4.412;2022-09-09T01:55:29;7.70;;;1.88;;
27796;SDS011;15177;50.844;4.412;2022-09-09T02:00:34;7.63;;;1.73;;
27796;SDS011;15177;50.844;4.412;2022-09-09T02:08:38;4.95;;;1.90;;
27796;SDS011;15177;50.844;4.412;2022-09-09T02:11:13;9.90;;;2.38;;
27796;SDS011;15177;50.844;4.412;2022-09-09T02:13:48;8.07;;;1.90;;
27796;SDS011;15177;50.844;4.412;2022-09-09T02:16:20;6.43;;;2.15;;
27796;SDS011;15177;50.844;4.412;2022-09-09T02:21:28;7.97;;;2.35;;
27796;SDS011;15177;50.844;4.412;2022-09-09T02:23:55;11.77;;;2.75;;
27796;SDS011;15177;50.844;4.412;2022-09-09T02:26:24;6.38;;;1.95;;
27796;SDS011;15177;50.844;4.412;2022-09-09T02:28:51;9.73;;;2.63;;
27796;SDS011;15177;50.844;4.412;2022-09-09T02:31:20;4.40;;;2.08;;
27796;SDS011;15177;50.844;4.412;2022-09-09T02:33:53;16.10;;;3.25;;
27796;SDS011;15177;50.844;4.412;2022-09-09T02:36:21;14.27;;;2.22;;
27796;SDS011;15177;50.844;4.412;2022-09-09T02:38:50;8.15;;;1.88;;
27796;SDS011;15177;50.844;4.412;2022-09-09T02:41:24;14.88;;;2.30;;
27796;SDS011;15177;50.844;4.412;2022-09-09T02:43:54;8.25;;;2.80;;
27796;SDS011;15177;50.844;4.412;2022-09-09T02:51:24;9.63;;;3.42;;
27796;SDS011;15177;50.844;4.412;2022-09-09T02:56:49;13.48;;;2.20;;
27796;SDS011;15177;50.844;4.412;2022-09-09T02:59:19;16.20;;;2.30;;
27796;SDS011;15177;50.844;4.412;2022-09-09T03:01:45;16.15;;;2.17;;
27796;SDS011;15177;50.844;4.412;2022-09-09T03:04:12;11.35;;;2.30;;
27796;SDS011;15177;50.844;4.412;2022-09-09T03:06:37;10.00;;;2.22;;
27796;SDS011;15177;50.844;4.412;2022-09-09T03:09:03;15.48;;;2.55;;
27796;SDS011;15177;50.844;4.412;2022-09-09T03:11:29;13.30;;;2.20;;
27796;SDS011;15177;50.844;4.412;2022-09-09T03:13:54;13.05;;;2.25;;
27796;SDS011;15177;50.844;4.412;2022-09-09T03:16:23;14.90;;;2.40;;
27796;SDS011;15177;50.844;4.412;2022-09-09T03:18:49;16.45;;;2.55;;
27796;SDS011;15177;50.844;4.412;2022-09-09T03:21:15;7.63;;;2.03;;
27796;SDS011;15177;50.844;4.412;2022-09-09T03:23:41;9.73;;;2.17;;
27796;SDS011;15177;50.844;4.412;2022-09-09T03:26:09;9.93;;;2.08;;
27796;SDS011;15177;50.844;4.412;2022-09-09T03:28:34;12.18;;;2.47;;
27796;SDS011;15177;50.844;4.412;2022-09-09T03:31:01;12.90;;;2.50;;
27796;SDS011;15177;50.844;4.412;2022-09-09T03:33:27;6.97;;;1.80;;
27796;SDS011;15177;50.844;4.412;2022-09-09T03:35:54;11.60;;;2.63;;
27796;SDS011;15177;50.844;4.412;2022-09-09T03:38:21;11.02;;;2.15;;
27796;SDS011;15177;50.844;4.412;2022-09-09T03:40:51;13.60;;;2.78;;
27796;SDS011;15177;50.844;4.412;2022-09-09T03:43:22;14.63;;;3.25;;
27796;SDS011;15177;50.844;4.412;2022-09-09T03:45:48;9.73;;;2.47;;
27796;SDS011;15177;50.844;4.412;2022-09-09T03:48:15;20.40;;;2.78;;
27796;SDS011;15177;50.844;4.412;2022-09-09T03:50:45;10.63;;;2.47;;
27796;SDS011;15177;50.844;4.412;2022-09-09T03:53:11;13.25;;;2.47;;
27796;SDS011;15177;50.844;4.412;2022-09-09T03:55:36;10.75;;;2.53;;
27796;SDS011;15177;50.844;4.412;2022-09-09T03:58:02;13.32;;;2.80;;
27796;SDS011;15177;50.844;4.412;2022-09-09T04:00:27;13.63;;;2.42;;
27796;SDS011;15177;50.844;4.412;2022-09-09T04:02:55;15.85;;;3.25;;
27796;SDS011;15177;50.844;4.412;2022-09-09T04:05:22;8.50;;;2.75;;
27796;SDS011;15177;50.844;4.412;2022-09-09T04:07:48;13.05;;;3.05;;
27796;SDS011;15177;50.844;4.412;2022-09-09T04:10:13;14.25;;;2.63;;
27796;SDS011;15177;50.844;4.412;2022-09-09T04:12:40;14.27;;;2.45;;
27796;SDS011;15177;50.844;4.412;2022-09-09T04:15:06;9.80;;;2.38;;
27796;SDS011;15177;50.844;4.412;2022-09-09T04:17:32;15.45;;;3.03;;
27796;SDS011;15177;50.844;4.412;2022-09-09T04:19:58;11.02;;;3.25;;
27796;SDS011;15177;50.844;4.412;2022-09-09T04:22:23;11.35;;;2.42;;
27796;SDS011;15177;50.844;4.412;2022-09-09T04:24:49;13.30;;;2.60;;
27796;SDS011;15177;50.844;4.412;2022-09-09T04:27:15;12.95;;;3.17;;
27796;SDS011;15177;50.844;4.412;2022-09-09T04:29:40;14.63;;;3.53;;
27796;SDS011;15177;50.844;4.412;2022-09-09T04:32:06;14.35;;;2.40;;
27796;SDS011;15177;50.844;4.412;2022-09-09T04:34:31;14.13;;;3.47;;
27796;SDS011;15177;50.844;4.412;2022-09-09T04:36:57;16.98;;;3.00;;
27796;SDS011;15177;50.844;4.412;2022-09-09T04:39:25;11.57;;;2.63;;
27796;SDS011;15177;50.844;4.412;2022-09-09T04:41:51;11.38;;;2.85;;
27796;SDS011;15177;50.844;4.412;2022-09-09T04:44:16;14.45;;;3.40;;
27796;SDS011;15177;50.844;4.412;2022-09-09T04:46:42;10.52;;;2.70;;
27796;SDS011;15177;50.844;4.412;2022-09-09T04:49:08;11.25;;;3.13;;
27796;SDS011;15177;50.844;4.412;2022-09-09T04:51:33;16.38;;;3.38;;
27796;SDS011;15177;50.844;4.412;2022-09-09T04:53:59;20.02;;;2.92;;
27796;SDS011;15177;50.844;4.412;2022-09-09T04:56:24;14.65;;;2.95;;
27796;SDS011;15177;50.844;4.412;2022-09-09T04:58:53;9.35;;;2.60;;
27796;SDS011;15177;50.844;4.412;2022-09-09T05:01:20;12.05;;;2.63;;
27796;SDS011;15177;50.844;4.412;2022-09-09T05:03:47;16.58;;;2.95;;
27796;SDS011;15177;50.844;4.412;2022-09-09T05:06:16;11.95;;;2.70;;
27796;SDS011;15177;50.844;4.412;2022-09-09T05:08:44;9.98;;;2.78;;
27796;SDS011;15177;50.844;4.412;2022-09-09T05:11:14;12.40;;;3.42;;
27796;SDS011;15177;50.844;4.412;2022-09-09T05:13:41;11.75;;;2.78;;
27796;SDS011;15177;50.844;4.412;2022-09-09T05:16:07;20.70;;;3.42;;
27796;SDS011;15177;50.844;4.412;2022-09-09T05:18:38;23.75;;;5.78;;
27796;SDS011;15177;50.844;4.412;2022-09-09T05:21:04;6.32;;;2.50;;
27796;SDS011;15177;50.844;4.412;2022-09-09T05:23:31;19.15;;;3.72;;
27796;SDS011;15177;50.844;4.412;2022-09-09T05:25:58;15.75;;;3.40;;
27796;SDS011;15177;50.844;4.412;2022-09-09T05:28:25;11.73;;;2.85;;
27796;SDS011;15177;50.844;4.412;2022-09-09T05:33:30;15.70;;;3.72;;
27796;SDS011;15177;50.844;4.412;2022-09-09T05:35:57;13.88;;;2.75;;
27796;SDS011;15177;50.844;4.412;2022-09-09T05:38:31;12.60;;;2.47;;
27796;SDS011;15177;50.844;4.412;2022-09-09T05:40:58;14.07;;;2.97;;
27796;SDS011;15177;50.844;4.412;2022-09-09T05:43:24;15.98;;;3.13;;
27796;SDS011;15177;50.844;4.412;2022-09-09T05:48:30;13.63;;;3.78;;
27796;SDS011;15177;50.844;4.412;2022-09-09T05:50:58;15.10;;;2.83;;
27796;SDS011;15177;50.844;4.412;2022-09-09T05:53:24;7.18;;;2.17;;
27796;SDS011;15177;50.844;4.412;2022-09-09T05:55:50;15.05;;;2.88;;
27796;SDS011;15177;50.844;4.412;2022-09-09T05:58:23;16.67;;;2.25;;
27796;SDS011;15177;50.844;4.412;2022-09-09T06:00:49;29.13;;;3.60;;
27796;SDS011;15177;50.844;4.412;2022-09-09T06:03:15;11.57;;;2.90;;
27796;SDS011;15177;50.844;4.412;2022-09-09T06:05:42;11.85;;;2.47;;
27796;SDS011;15177;50.844;4.412;2022-09-09T06:08:09;14.43;;;2.78;;
27796;SDS011;15177;50.844;4.412;2022-09-09T06:10:36;9.35;;;2.60;;
27796;SDS011;15177;50.844;4.412;2022-09-09T06:13:01;11.50;;;2.55;;
27796;SDS011;15177;50.844;4.412;2022-09-09T06:15:27;14.27;;;2.70;;
27796;SDS011;15177;50.844;4.412;2022-09-09T06:17:55;9.82;;;2.05;;
27796;SDS011;15177;50.844;4.412;2022-09-09T06:20:21;19.50;;;2.75;;
27796;SDS011;15177;50.844;4.412;2022-09-09T06:22:47;13.52;;;2.58;;
27796;SDS011;15177;50.844;4.412;2022-09-09T06:25:13;13.07;;;2.88;;
27796;SDS011;15177;50.844;4.412;2022-09-09T06:27:39;12.32;;;3.20;;
27796;SDS011;15177;50.844;4.412;2022-09-09T06:30:05;9.07;;;2.22;;
27796;SDS011;15177;50.844;4.412;2022-09-09T06:32:34;15.48;;;3.05;;
27796;SDS011;15177;50.844;4.412;2022-09-09T06:35:02;8.95;;;2.25;;
27796;SDS011;15177;50.844;4.412;2022-09-09T06:37:28;9.70;;;2.25;;
27796;SDS011;15177;50.844;4.412;2022-09-09T06:39:54;11.63;;;2.35;;
27796;SDS011;15177;50.844;4.412;2022-09-09T06:42:20;13.07;;;2.70;;
27796;SDS011;15177;50.844;4.412;2022-09-09T06:44:45;11.27;;;2.53;;
27796;SDS011;15177;50.844;4.412;2022-09-09T06:47:11;16.90;;;2.75;;
27796;SDS011;15177;50.844;4.412;2022-09-09T06:49:37;9.88;;;2.17;;
27796;SDS011;15177;50.844;4.412;2022-09-09T06:52:03;14.00;;;2.78;;
27796;SDS011;15177;50.844;4.412;2022-09-09T06:54:29;12.10;;;2.63;;
27796;SDS011;15177;50.844;4.412;2022-09-09T06:56:55;13.48;;;3.15;;
27796;SDS011;15177;50.844;4.412;2022-09-09T06:59:20;11.10;;;2.30;;
27796;SDS011;15177;50.844;4.412;2022-09-09T07:01:46;11.50;;;2.17;;
27796;SDS011;15177;50.844;4.412;2022-09-09T07:04:12;11.88;;;2.33;;
27796;SDS011;15177;50.844;4.412;2022-09-09T07:06:39;13.15;;;2.22;;
27796;SDS011;15177;50.844;4.412;2022-09-09T07:09:09;10.77;;;2.47;;
27796;SDS011;15177;50.844;4.412;2022-09-09T07:11:40;13.93;;;2.58;;
27796;SDS011;15177;50.844;4.412;2022-09-09T07:14:07;9.90;;;2.42;;
27796;SDS011;15177;50.844;4.412;2022-09-09T07:16:33;10.25;;;2.00;;
27796;SDS011;15177;50.844;4.412;2022-09-09T07:19:02;13.70;;;3.00;;
27796;SDS011;15177;50.844;4.412;2022-09-09T07:21:29;9.98;;;2.22;;
27796;SDS011;15177;50.844;4.412;2022-09-09T07:23:56;13.13;;;2.40;;
27796;SDS011;15177;50.844;4.412;2022-09-09T07:26:23;8.50;;;1.95;;
27796;SDS011;15177;50.844;4.412;2022-09-09T07:28:50;11.45;;;1.98;;
27796;SDS011;15177;50.844;4.412;2022-09-09T07:31:18;13.23;;;2.63;;
27796;SDS011;15177;50.844;4.412;2022-09-09T07:33:48;9.52;;;2.05;;
27796;SDS011;15177;50.844;4.412;2022-09-09T07:36:15;13.25;;;2.35;;
27796;SDS011;15177;50.844;4.412;2022-09-09T07:38:50;18.08;;;2.42;;
27796;SDS011;15177;50.844;4.412;2022-09-09T07:44:11;8.23;;;3.38;;
27796;SDS011;15177;50.844;4.412;2022-09-09T07:46:43;8.93;;;2.28;;
27796;SDS011;15177;50.844;4.412;2022-09-09T07:49:11;12.32;;;2.13;;
27796;SDS011;15177;50.844;4.412;2022-09-09T07:51:38;11.43;;;2.55;;
27796;SDS011;15177;50.844;4.412;2022-09-09T07:54:06;17.30;;;2.22;;
27796;SDS011;15177;50.844;4.412;2022-09-09T07:56:34;8.02;;;2.30;;
27796;SDS011;15177;50.844;4.412;2022-09-09T07:59:02;10.75;;;2.85;;
27796;SDS011;15177;50.844;4.412;2022-09-09T08:01:32;11.20;;;2.15;;
27796;SDS011;15177;50.844;4.412;2022-09-09T08:04:05;13.13;;;2.15;;
27796;SDS011;15177;50.844;4.412;2022-09-09T08:06:36;8.55;;;2.63;;
27796;SDS011;15177;50.844;4.412;2022-09-09T08:09:04;10.23;;;2.38;;
27796;SDS011;15177;50.844;4.412;2022-09-09T08:11:32;9.93;;;2.55;;
27796;SDS011;15177;50.844;4.412;2022-09-09T08:13:59;11.65;;;2.63;;
27796;SDS011;15177;50.844;4.412;2022-09-09T08:16:26;9.57;;;2.35;;
27796;SDS011;15177;50.844;4.412;2022-09-09T08:18:53;15.10;;;2.65;;
27796;SDS011;15177;50.844;4.412;2022-09-09T08:21:23;12.02;;;2.42;;
27796;SDS011;15177;50.844;4.412;2022-09-09T08:23:55;13.30;;;3.28;;
27796;SDS011;15177;50.844;4.412;2022-09-09T08:26:32;9.88;;;2.45;;
27796;SDS011;15177;50.844;4.412;2022-09-09T08:29:02;12.82;;;2.42;;
27796;SDS011;15177;50.844;4.412;2022-09-09T08:31:33;12.25;;;2.58;;
27796;SDS011;15177;50.844;4.412;2022-09-09T08:34:02;17.10;;;3.30;;
27796;SDS011;15177;50.844;4.412;2022-09-09T08:36:29;11.43;;;2.58;;
27796;SDS011;15177;50.844;4.412;2022-09-09T08:38:58;16.95;;;2.50;;
27796;SDS011;15177;50.844;4.412;2022-09-09T08:52:16;6.47;;;2.00;;
27796;SDS011;15177;50.844;4.412;2022-09-09T08:54:48;7.68;;;2.38;;
27796;SDS011;15177;50.844;4.412;2022-09-09T08:57:21;14.90;;;2.63;;
27796;SDS011;15177;50.844;4.412;2022-09-09T08:59:53;15.00;;;3.53;;
27796;SDS011;15177;50.844;4.412;2022-09-09T09:05:09;12.23;;;2.95;;
27796;SDS011;15177;50.844;4.412;2022-09-09T09:13:01;12.60;;;2.40;;
27796;SDS011;15177;50.844;4.412;2022-09-09T09:15:33;10.75;;;2.53;;
27796;SDS011;15177;50.844;4.412;2022-09-09T09:18:03;15.13;;;3.28;;
27796;SDS011;15177;50.844;4.412;2022-09-09T09:20:40;11.13;;;2.63;;
27796;SDS011;15177;50.844;4.412;2022-09-09T09:23:09;11.98;;;2.70;;
27796;SDS011;15177;50.844;4.412;2022-09-09T09:25:47;14.68;;;2.70;;
27796;SDS011;15177;50.844;4.412;2022-09-09T09:33:28;11.65;;;2.95;;
27796;SDS011;15177;50.844;4.412;2022-09-09T09:36:11;9.63;;;3.25;;
27796;SDS011;15177;50.844;4.412;2022-09-09T09:46:49;8.48;;;2.72;;
27796;SDS011;15177;50.844;4.412;2022-09-09T09:49:15;11.30;;;2.63;;
27796;SDS011;15177;50.844;4.412;2022-09-09T09:51:40;10.73;;;2.63;;
27796;SDS011;15177;50.844;4.412;2022-09-09T09:54:08;10.77;;;2.85;;
27796;SDS011;15177;50.844;4.412;2022-09-09T09:56:52;9.07;;;3.05;;
27796;SDS011;15177;50.844;4.412;2022-09-09T10:04:45;10.60;;;3.08;;
27796;SDS011;15177;50.844;4.412;2022-09-09T10:07:18;10.68;;;2.45;;
27796;SDS011;15177;50.844;4.412;2022-09-09T10:09:48;9.88;;;2.92;;
27796;SDS011;15177;50.844;4.412;2022-09-09T10:12:22;11.18;;;2.70;;
27796;SDS011;15177;50.844;4.412;2022-09-09T10:20:32;10.13;;;2.45;;
27796;SDS011;15177;50.844;4.412;2022-09-09T10:23:07;8.90;;;2.40;;
27796;SDS011;15177;50.844;4.412;2022-09-09T10:36:19;12.85;;;3.10;;
27796;SDS011;15177;50.844;4.412;2022-09-09T10:38:52;9.30;;;2.13;;
27796;SDS011;15177;50.844;4.412;2022-09-09T10:47:07;8.10;;;2.10;;
27796;SDS011;15177;50.844;4.412;2022-09-09T10:55:27;8.43;;;2.78;;
27796;SDS011;15177;50.844;4.412;2022-09-09T10:58:03;9.15;;;2.85;;
27796;SDS011;15177;50.844;4.412;2022-09-09T11:00:39;10.50;;;2.67;;
27796;SDS011;15177;50.844;4.412;2022-09-09T11:03:18;12.52;;;2.15;;
27796;SDS011;15177;50.844;4.412;2022-09-09T11:08:30;8.07;;;2.05;;
27796;SDS011;15177;50.844;4.412;2022-09-09T11:18:40;8.50;;;2.50;;
27796;SDS011;15177;50.844;4.412;2022-09-09T11:21:10;7.45;;;1.90;;
27796;SDS011;15177;50.844;4.412;2022-09-09T11:23:52;9.32;;;2.20;;
27796;SDS011;15177;50.844;4.412;2022-09-09T11:26:29;9.75;;;2.72;;
27796;SDS011;15177;50.844;4.412;2022-09-09T11:36:58;7.03;;;2.45;;
27796;SDS011;15177;50.844;4.412;2022-09-09T11:44:41;5.82;;;2.25;;
27796;SDS011;15177;50.844;4.412;2022-09-09T11:49:51;7.57;;;2.13;;
27796;SDS011;15177;50.844;4.412;2022-09-09T11:52:23;8.27;;;2.28;;
27796;SDS011;15177;50.844;4.412;2022-09-09T11:54:54;10.88;;;2.28;;
27796;SDS011;15177;50.844;4.412;2022-09-09T11:59:58;8.50;;;2.05;;
27796;SDS011;15177;50.844;4.412;2022-09-09T12:02:25;10.32;;;2.20;;
27796;SDS011;15177;50.844;4.412;2022-09-09T12:12:52;8.77;;;1.92;;
27796;SDS011;15177;50.844;4.412;2022-09-09T12:15:19;9.77;;;2.05;;
27796;SDS011;15177;50.844;4.412;2022-09-09T12:17:55;5.85;;;1.88;;
27796;SDS011;15177;50.844;4.412;2022-09-09T12:33:18;8.55;;;2.85;;
27796;SDS011;15177;50.844;4.412;2022-09-09T12:35:45;7.22;;;2.08;;
27796;SDS011;15177;50.844;4.412;2022-09-09T12:40:59;8.65;;;2.10;;
27796;SDS011;15177;50.844;4.412;2022-09-09T12:43:25;8.55;;;1.90;;
27796;SDS011;15177;50.844;4.412;2022-09-09T12:45:54;6.10;;;1.88;;
27796;SDS011;15177;50.844;4.412;2022-09-09T12:48:25;6.88;;;1.92;;
27796;SDS011;15177;50.844;4.412;2022-09-09T12:50:57;6.20;;;1.80;;
27796;SDS011;15177;50.844;4.412;2022-09-09T12:53:25;8.93;;;1.60;;
27796;SDS011;15177;50.844;4.412;2022-09-09T12:58:36;5.25;;;1.70;;
27796;SDS011;15177;50.844;4.412;2022-09-09T13:01:05;4.60;;;1.70;;
27796;SDS011;15177;50.844;4.412;2022-09-09T13:03:32;4.90;;;1.70;;
27796;SDS011;15177;50.844;4.412;2022-09-09T13:06:11;5.55;;;1.90;;
27796;SDS011;15177;50.844;4.412;2022-09-09T13:08:39;5.35;;;1.35;;
27796;SDS011;15177;50.844;4.412;2022-09-09T13:11:10;6.25;;;1.75;;
27796;SDS011;15177;50.844;4.412;2022-09-09T13:13:40;7.78;;;1.98;;
27796;SDS011;15177;50.844;4.412;2022-09-09T13:16:18;4.28;;;1.50;;
27796;SDS011;15177;50.844;4.412;2022-09-09T13:18:51;5.78;;;1.75;;
27796;SDS011;15177;50.844;4.412;2022-09-09T13:21:18;9.25;;;1.80;;
27796;SDS011;15177;50.844;4.412;2022-09-09T13:23:48;5.95;;;1.52;;
27796;SDS011;15177;50.844;4.412;2022-09-09T13:28:53;6.68;;;2.28;;
27796;SDS011;15177;50.844;4.412;2022-09-09T13:31:27;7.55;;;1.88;;
27796;SDS011;15177;50.844;4.412;2022-09-09T13:33:58;6.10;;;1.88;;
27796;SDS011;15177;50.844;4.412;2022-09-09T13:36:27;5.13;;;2.00;;
27796;SDS011;15177;50.844;4.412;2022-09-09T13:38:56;6.15;;;1.75;;
27796;SDS011;15177;50.844;4.412;2022-09-09T13:41:25;4.10;;;1.23;;
27796;SDS011;15177;50.844;4.412;2022-09-09T13:44:00;10.95;;;2.05;;
27796;SDS011;15177;50.844;4.412;2022-09-09T13:46:35;6.65;;;1.40;;
27796;SDS011;15177;50.844;4.412;2022-09-09T13:51:35;4.53;;;1.30;;
27796;SDS011;15177;50.844;4.412;2022-09-09T13:54:05;5.75;;;1.15;;
27796;SDS011;15177;50.844;4.412;2022-09-09T13:56:34;4.13;;;1.30;;
27796;SDS011;15177;50.844;4.412;2022-09-09T13:59:00;3.35;;;1.30;;
27796;SDS011;15177;50.844;4.412;2022-09-09T14:01:29;4.70;;;1.63;;
27796;SDS011;15177;50.844;4.412;2022-09-09T14:03:56;5.15;;;1.48;;
27796;SDS011;15177;50.844;4.412;2022-09-09T14:06:22;4.75;;;1.45;;
27796;SDS011;15177;50.844;4.412;2022-09-09T14:08:50;6.40;;;1.50;;
27796;SDS011;15177;50.844;4.412;2022-09-09T14:11:18;4.90;;;1.40;;
27796;SDS011;15177;50.844;4.412;2022-09-09T14:13:44;8.35;;;1.60;;
27796;SDS011;15177;50.844;4.412;2022-09-09T14:16:09;5.85;;;1.48;;
27796;SDS011;15177;50.844;4.412;2022-09-09T14:18:35;5.10;;;1.70;;
27796;SDS011;15177;50.844;4.412;2022-09-09T14:21:02;6.82;;;2.03;;
27796;SDS011;15177;50.844;4.412;2022-09-09T14:23:28;7.47;;;1.52;;
27796;SDS011;15177;50.844;4.412;2022-09-09T14:25:54;7.07;;;2.03;;
27796;SDS011;15177;50.844;4.412;2022-09-09T14:28:20;4.32;;;1.80;;
27796;SDS011;15177;50.844;4.412;2022-09-09T14:30:46;4.65;;;1.90;;
27796;SDS011;15177;50.844;4.412;2022-09-09T14:33:13;5.20;;;1.98;;
27796;SDS011;15177;50.844;4.412;2022-09-09T14:35:40;7.32;;;1.95;;
27796;SDS011;15177;50.844;4.412;2022-09-09T14:38:07;3.95;;;1.40;;
27796;SDS011;15177;50.844;4.412;2022-09-09T14:40:36;8.45;;;2.05;;
27796;SDS011;15177;50.844;4.412;2022-09-09T14:43:03;7.07;;;1.83;;
27796;SDS011;15177;50.844;4.412;2022-09-09T14:45:30;6.35;;;1.58;;
27796;SDS011;15177;50.844;4.412;2022-09-09T14:47:56;7.97;;;1.83;;
27796;SDS011;15177;50.844;4.412;2022-09-09T14:50:22;5.07;;;1.73;;
27796;SDS011;15177;50.844;4.412;2022-09-09T14:52:48;6.30;;;2.03;;
27796;SDS011;15177;50.844;4.412;2022-09-09T14:55:15;4.82;;;1.80;;
27796;SDS011;15177;50.844;4.412;2022-09-09T14:57:41;11.00;;;1.77;;
27796;SDS011;15177;50.844;4.412;2022-09-09T15:00:07;4.00;;;1.75;;
27796;SDS011;15177;50.844;4.412;2022-09-09T15:02:36;7.43;;;2.05;;
27796;SDS011;15177;50.844;4.412;2022-09-09T15:05:03;4.10;;;1.15;;
27796;SDS011;15177;50.844;4.412;2022-09-09T15:07:29;9.57;;;1.95;;
27796;SDS011;15177;50.844;4.412;2022-09-09T15:09:56;5.68;;;1.50;;
27796;SDS011;15177;50.844;4.412;2022-09-09T15:12:23;7.82;;;1.98;;
27796;SDS011;15177;50.844;4.412;2022-09-09T15:14:49;4.95;;;1.73;;
27796;SDS011;15177;50.844;4.412;2022-09-09T15:17:15;5.18;;;1.83;;
27796;SDS011;15177;50.844;4.412;2022-09-09T15:19:41;7.70;;;1.77;;
27796;SDS011;15177;50.844;4.412;2022-09-09T15:22:07;8.82;;;2.20;;
27796;SDS011;15177;50.844;4.412;2022-09-09T15:24:33;8.30;;;1.88;;
27796;SDS011;15177;50.844;4.412;2022-09-09T15:27:00;10.20;;;1.95;;
27796;SDS011;15177;50.844;4.412;2022-09-09T15:29:26;9.45;;;1.70;;
27796;SDS011;15177;50.844;4.412;2022-09-09T15:31:53;14.13;;;2.05;;
27796;SDS011;15177;50.844;4.412;2022-09-09T15:34:20;8.63;;;2.03;;
27796;SDS011;15177;50.844;4.412;2022-09-09T15:36:46;11.98;;;2.15;;
27796;SDS011;15177;50.844;4.412;2022-09-09T15:39:13;7.45;;;1.88;;
27796;SDS011;15177;50.844;4.412;2022-09-09T15:41:41;11.35;;;2.22;;
27796;SDS011;15177;50.844;4.412;2022-09-09T15:44:09;7.60;;;1.70;;
27796;SDS011;15177;50.844;4.412;2022-09-09T15:46:40;9.35;;;1.70;;
27796;SDS011;15177;50.844;4.412;2022-09-09T15:51:41;9.05;;;1.98;;
27796;SDS011;15177;50.844;4.412;2022-09-09T15:54:09;7.28;;;2.05;;
27796;SDS011;15177;50.844;4.412;2022-09-09T15:56:40;4.28;;;1.65;;
27796;SDS011;15177;50.844;4.412;2022-09-09T15:59:06;7.80;;;1.80;;
27796;SDS011;15177;50.844;4.412;2022-09-09T16:01:32;3.53;;;1.38;;
27796;SDS011;15177;50.844;4.412;2022-09-09T16:03:58;9.32;;;1.55;;
27796;SDS011;15177;50.844;4.412;2022-09-09T16:06:25;6.10;;;1.67;;
27796;SDS011;15177;50.844;4.412;2022-09-09T16:08:53;5.47;;;1.73;;
27796;SDS011;15177;50.844;4.412;2022-09-09T16:11:21;5.43;;;1.33;;
27796;SDS011;15177;50.844;4.412;2022-09-09T16:13:49;7.05;;;1.77;;
27796;SDS011;15177;50.844;4.412;2022-09-09T16:16:18;4.40;;;1.60;;
27796;SDS011;15177;50.844;4.412;2022-09-09T16:18:47;9.50;;;2.05;;
27796;SDS011;15177;50.844;4.412;2022-09-09T16:21:20;6.07;;;2.00;;
27796;SDS011;15177;50.844;4.412;2022-09-09T16:23:49;3.70;;;1.75;;
27796;SDS011;15177;50.844;4.412;2022-09-09T16:26:16;5.95;;;2.13;;
27796;SDS011;15177;50.844;4.412;2022-09-09T16:28:43;9.90;;;2.45;;
27796;SDS011;15177;50.844;4.412;2022-09-09T16:31:10;7.05;;;2.10;;
27796;SDS011;15177;50.844;4.412;2022-09-09T16:33:38;13.05;;;2.45;;
27796;SDS011;15177;50.844;4.412;2022-09-09T16:36:05;5.85;;;1.70;;
27796;SDS011;15177;50.844;4.412;2022-09-09T16:38:36;5.82;;;1.50;;
27796;SDS011;15177;50.844;4.412;2022-09-09T16:41:03;5.25;;;1.60;;
27796;SDS011;15177;50.844;4.412;2022-09-09T16:43:30;5.63;;;1.77;;
27796;SDS011;15177;50.844;4.412;2022-09-09T16:45:57;4.25;;;1.88;;
27796;SDS011;15177;50.844;4.412;2022-09-09T16:48:25;5.95;;;1.98;;
27796;SDS011;15177;50.844;4.412;2022-09-09T16:50:51;5.43;;;1.85;;
27796;SDS011;15177;50.844;4.412;2022-09-09T16:53:17;5.07;;;1.80;;
27796;SDS011;15177;50.844;4.412;2022-09-09T16:55:43;3.47;;;2.00;;
27796;SDS011;15177;50.844;4.412;2022-09-09T16:58:12;6.63;;;2.33;;
27796;SDS011;15177;50.844;4.412;2022-09-09T17:00:38;5.40;;;1.77;;
27796;SDS011;15177;50.844;4.412;2022-09-09T17:03:04;7.28;;;1.88;;
27796;SDS011;15177;50.844;4.412;2022-09-09T17:05:30;10.07;;;2.58;;
27796;SDS011;15177;50.844;4.412;2022-09-09T17:07:57;4.95;;;1.85;;
27796;SDS011;15177;50.844;4.412;2022-09-09T17:10:24;6.80;;;2.20;;
27796;SDS011;15177;50.844;4.412;2022-09-09T17:12:50;6.13;;;2.20;;
27796;SDS011;15177;50.844;4.412;2022-09-09T17:15:16;7.85;;;1.95;;
27796;SDS011;15177;50.844;4.412;2022-09-09T17:17:43;6.65;;;1.98;;
27796;SDS011;15177;50.844;4.412;2022-09-09T17:20:10;5.57;;;1.90;;
27796;SDS011;15177;50.844;4.412;2022-09-09T17:22:36;10.55;;;2.97;;
27796;SDS011;15177;50.844;4.412;2022-09-09T17:25:02;7.03;;;2.42;;
27796;SDS011;15177;50.844;4.412;2022-09-09T17:27:28;8.43;;;1.90;;
27796;SDS011;15177;50.844;4.412;2022-09-09T17:29:56;9.75;;;1.70;;
27796;SDS011;15177;50.844;4.412;2022-09-09T17:32:23;8.18;;;2.03;;
27796;SDS011;15177;50.844;4.412;2022-09-09T17:34:48;6.07;;;1.88;;
27796;SDS011;15177;50.844;4.412;2022-09-09T17:37:14;9.23;;;1.83;;
27796;SDS011;15177;50.844;4.412;2022-09-09T17:39:40;14.77;;;2.20;;
27796;SDS011;15177;50.844;4.412;2022-09-09T17:42:05;11.02;;;2.22;;
27796;SDS011;15177;50.844;4.412;2022-09-09T17:44:32;9.55;;;1.98;;
27796;SDS011;15177;50.844;4.412;2022-09-09T17:46:58;12.63;;;2.75;;
27796;SDS011;15177;50.844;4.412;2022-09-09T17:49:24;10.70;;;2.22;;
27796;SDS011;15177;50.844;4.412;2022-09-09T17:51:50;7.32;;;2.20;;
27796;SDS011;15177;50.844;4.412;2022-09-09T17:54:18;10.23;;;2.30;;
27796;SDS011;15177;50.844;4.412;2022-09-09T17:56:45;10.23;;;3.05;;
27796;SDS011;15177;50.844;4.412;2022-09-09T17:59:12;12.50;;;3.80;;
27796;SDS011;15177;50.844;4.412;2022-09-09T18:01:40;8.88;;;2.30;;
27796;SDS011;15177;50.844;4.412;2022-09-09T18:04:08;10.95;;;2.63;;
27796;SDS011;15177;50.844;4.412;2022-09-09T18:06:38;9.63;;;2.22;;
27796;SDS011;15177;50.844;4.412;2022-09-09T18:09:10;12.77;;;2.25;;
27796;SDS011;15177;50.844;4.412;2022-09-09T18:11:39;12.00;;;2.45;;